Time;durP1;ratioP1;P1;durP2;ratioP2;P2;SDS_P1;SDS_P2;PMS_P1;PMS_P2;Temp;Humidity;BMP_temperature;BMP_pressure;BME280_temperature;BME280_humidity;BME280_pressure;Samples;Min_cycle;Max_cycle;Signal;HPM_P1;HPM_P2
2023/07/26 00:01:34;;;;;;;3.33;1.17;;;;;;;25.98;45.10;99651.25;4898557;29;20033;-77
2023/07/26 00:03:59;;;;;;;4.15;1.83;;;;;;;26.00;45.08;99660.00;4898424;29;20025;-78
2023/07/26 00:06:25;;;;;;;4.20;1.48;;;;;;;25.98;45.17;99655.72;4898737;29;20031;-76
2023/07/26 00:08:51;;;;;;;3.97;1.45;;;;;;;25.97;45.25;99662.91;4898474;29;20128;-78
2023/07/26 00:11:17;;;;;;;2.08;1.33;;;;;;;25.97;45.24;99662.91;4898605;29;20044;-76
2023/07/26 00:13:43;;;;;;;3.28;1.48;;;;;;;25.96;44.89;99658.53;4898637;29;20089;-77
2023/07/26 00:16:08;;;;;;;2.50;1.10;;;;;;;25.96;44.89;99658.53;4898802;29;20032;-77
2023/07/26 00:18:34;;;;;;;4.22;1.30;;;;;;;25.95;45.12;99656.81;4898227;29;20438;-77
2023/07/26 00:20:59;;;;;;;2.45;1.05;;;;;;;25.95;45.07;99656.81;4898382;29;20036;-77
2023/07/26 00:23:25;;;;;;;3.58;1.30;;;;;;;25.93;45.02;99661.44;4898488;29;20017;-76
2023/07/26 00:25:51;;;;;;;1.77;1.08;;;;;;;25.94;45.02;99656.94;4898665;29;20648;-78
2023/07/26 00:28:16;;;;;;;3.10;1.23;;;;;;;25.94;44.86;99649.78;4898304;29;20027;-77
2023/07/26 00:30:42;;;;;;;2.22;1.08;;;;;;;25.94;44.97;99659.59;4893796;29;20383;-77
2023/07/26 00:33:07;;;;;;;2.72;1.15;;;;;;;25.91;44.73;99655.34;4897878;29;20033;-77
2023/07/26 00:35:41;;;;;;;2.72;1.20;;;;;;;25.92;44.87;99651.75;4893827;29;20020;-78
2023/07/26 00:38:06;;;;;;;3.10;1.10;;;;;;;25.92;45.16;99651.75;4895232;29;20431;-77
2023/07/26 00:40:32;;;;;;;1.90;1.10;;;;;;;25.93;44.85;99650.75;4897732;29;20017;-77
2023/07/26 00:42:58;;;;;;;3.10;1.33;;;;;;;25.90;44.90;99642.97;4898011;29;20104;-77
2023/07/26 00:45:24;;;;;;;2.67;1.10;;;;;;;25.89;44.68;99651.13;4898141;29;20099;-77
2023/07/26 00:47:49;;;;;;;1.67;0.90;;;;;;;25.89;44.81;99646.63;4897880;29;20045;-76
2023/07/26 00:50:15;;;;;;;2.53;1.13;;;;;;;25.88;45.17;99639.56;4897973;29;20054;-77
2023/07/26 00:52:41;;;;;;;3.63;1.35;;;;;;;25.89;45.06;99641.28;4898164;29;20054;-78
2023/07/26 00:55:07;;;;;;;2.55;1.30;;;;;;;25.88;45.03;99639.56;4898106;29;20032;-77
2023/07/26 00:57:33;;;;;;;3.10;1.05;;;;;;;25.86;44.69;99636.19;4897984;29;20021;-78
2023/07/26 00:59:59;;;;;;;2.55;1.27;;;;;;;25.87;45.23;99638.72;4897642;29;20052;-77
2023/07/26 01:02:24;;;;;;;2.78;1.00;;;;;;;25.86;45.14;99636.19;4894945;29;20016;-77
2023/07/26 01:04:51;;;;;;;5.00;1.10;;;;;;;25.84;45.14;99632.75;4897720;29;20025;-77
2023/07/26 01:07:37;;;;;;;3.03;1.30;;;;;;;25.83;44.76;99637.28;4896906;29;20028;-76
2023/07/26 01:10:27;;;;;;;3.08;1.08;;;;;;;25.84;44.94;99632.75;4897405;29;20517;-78
2023/07/26 01:13:04;;;;;;;3.08;1.05;;;;;;;25.83;44.80;99631.94;4889828;29;20029;-78
2023/07/26 01:15:36;;;;;;;2.47;1.10;;;;;;;25.81;45.15;99627.69;4894734;29;20028;-78
2023/07/26 01:18:13;;;;;;;3.08;1.27;;;;;;;25.82;45.00;99629.38;4894005;29;20024;-77
2023/07/26 01:20:39;;;;;;;2.97;1.10;;;;;;;25.82;44.77;99630.19;4894392;29;20123;-77
2023/07/26 01:23:06;;;;;;;3.60;1.10;;;;;;;25.81;44.85;99633.84;4897327;29;20060;-77
2023/07/26 01:25:31;;;;;;;2.03;0.90;;;;;;;25.80;45.13;99631.31;4897150;29;20409;-78
2023/07/26 01:27:57;;;;;;;2.42;1.25;;;;;;;25.81;44.71;99635.69;4897233;29;20021;-77
2023/07/26 01:30:23;;;;;;;2.55;1.20;;;;;;;25.82;45.05;99626.69;4897299;29;20041;-77
2023/07/26 01:32:51;;;;;;;2.05;1.10;;;;;;;25.79;45.07;99618.91;4897023;29;20025;-77
2023/07/26 01:35:20;;;;;;;2.20;0.98;;;;;;;25.79;45.22;99625.13;4897163;29;20025;-77
2023/07/26 01:37:46;;;;;;;1.98;0.98;;;;;;;25.79;44.94;99619.78;4897217;29;20417;-77
2023/07/26 01:40:13;;;;;;;4.03;1.02;;;;;;;25.76;44.98;99611.97;4896953;29;20033;-77
2023/07/26 01:42:39;;;;;;;2.33;0.98;;;;;;;25.77;44.75;99616.38;4895691;29;20021;-77
2023/07/26 01:45:05;;;;;;;2.80;0.95;;;;;;;25.77;44.72;99607.50;4895964;29;20493;-77
2023/07/26 01:47:31;;;;;;;1.75;0.80;;;;;;;25.77;44.72;99610.19;4895490;29;20021;-77
2023/07/26 01:49:56;;;;;;;2.05;1.02;;;;;;;25.77;44.95;99604.81;4896858;29;20111;-77
2023/07/26 01:52:23;;;;;;;2.45;1.10;;;;;;;25.77;45.10;99599.47;4896923;29;20025;-76
2023/07/26 01:54:49;;;;;;;3.33;1.23;;;;;;;25.76;45.02;99603.13;4896819;29;20493;-76
2023/07/26 01:57:14;;;;;;;2.03;1.00;;;;;;;25.74;44.79;99605.91;4896947;29;20032;-77
2023/07/26 01:59:40;;;;;;;3.15;1.23;;;;;;;25.74;44.75;99601.44;4896931;29;20027;-77
2023/07/26 02:02:06;;;;;;;3.13;1.20;;;;;;;25.74;44.74;99601.44;4896227;29;20504;-77
2023/07/26 02:04:31;;;;;;;1.65;0.82;;;;;;;25.74;44.88;99596.09;4896820;29;20438;-78
2023/07/26 02:06:56;;;;;;;2.35;0.93;;;;;;;25.70;44.78;99599.97;4896741;29;20040;-77
2023/07/26 02:09:22;;;;;;;2.80;1.02;;;;;;;25.71;44.93;99601.66;4896561;29;20048;-77
2023/07/26 02:11:47;;;;;;;1.90;0.90;;;;;;;25.71;45.05;99601.66;4896670;29;20025;-77
2023/07/26 02:14:16;;;;;;;1.98;0.90;;;;;;;25.72;44.88;99603.38;4896522;29;20375;-77
2023/07/26 02:16:41;;;;;;;2.55;1.05;;;;;;;25.71;44.99;99604.34;4896498;29;20057;-77
2023/07/26 02:19:07;;;;;;;2.22;1.20;;;;;;;25.72;44.81;99608.72;4900527;29;20480;-77
2023/07/26 02:21:32;;;;;;;2.80;0.90;;;;;;;25.71;45.06;99601.66;4900522;29;20032;-77
2023/07/26 02:23:58;;;;;;;2.85;1.00;;;;;;;25.69;45.12;99608.97;4900789;29;20039;-78
2023/07/26 02:26:23;;;;;;;2.05;0.98;;;;;;;25.68;44.82;99601.06;4900715;29;20048;-77
2023/07/26 02:28:48;;;;;;;2.65;1.00;;;;;;;25.65;45.13;99595.97;4900500;29;20112;-77
2023/07/26 02:31:14;;;;;;;3.00;1.00;;;;;;;25.66;45.15;99595.84;4899862;29;20036;-78
2023/07/26 02:33:39;;;;;;;1.65;0.93;;;;;;;25.65;44.99;99604.81;4900286;29;20025;-78
2023/07/26 02:36:04;;;;;;;2.10;0.90;;;;;;;25.66;44.77;99603.84;4900509;29;20036;-77
2023/07/26 02:38:30;;;;;;;2.17;0.93;;;;;;;25.66;44.78;99603.84;4900632;29;20024;-77
2023/07/26 02:40:55;;;;;;;2.28;0.93;;;;;;;25.65;45.10;99606.66;4899895;29;20029;-77
2023/07/26 02:43:21;;;;;;;1.95;0.90;;;;;;;25.65;45.09;99609.34;4891329;29;20031;-77
2023/07/26 02:45:47;;;;;;;2.28;0.82;;;;;;;25.64;45.08;99605.81;4900504;29;20017;-77
2023/07/26 02:48:12;;;;;;;2.40;1.10;;;;;;;25.64;45.12;99611.16;4900234;29;20029;-77
2023/07/26 02:50:38;;;;;;;1.80;0.80;;;;;;;25.64;44.88;99616.50;4900486;29;20029;-78
2023/07/26 02:53:03;;;;;;;2.80;1.10;;;;;;;25.60;44.70;99610.53;4899018;29;20068;-76
2023/07/26 02:55:28;;;;;;;1.92;1.00;;;;;;;25.63;45.10;99616.59;4900327;29;20020;-77
2023/07/26 02:57:54;;;;;;;1.98;0.80;;;;;;;25.61;45.05;99603.34;4899695;29;20024;-77
2023/07/26 03:00:19;;;;;;;2.55;1.00;;;;;;;25.61;45.05;99611.38;4900189;29;20027;-77
2023/07/26 03:02:45;;;;;;;3.20;1.30;;;;;;;25.60;44.98;99609.69;4900106;29;20115;-77
2023/07/26 03:05:10;;;;;;;1.63;0.80;;;;;;;25.61;44.82;99611.38;4900178;29;20031;-77
2023/07/26 03:07:36;;;;;;;2.22;0.90;;;;;;;25.59;44.78;99610.66;4899931;29;20954;-76
2023/07/26 03:10:01;;;;;;;2.40;0.90;;;;;;;25.59;44.75;99607.97;4899980;29;20053;-77
2023/07/26 03:12:26;;;;;;;1.95;1.10;;;;;;;25.57;45.10;99615.28;4899683;29;20025;-77
2023/07/26 03:14:52;;;;;;;2.88;1.00;;;;;;;25.57;45.01;99612.59;4899912;29;20028;-77
2023/07/26 03:17:17;;;;;;;1.95;1.10;;;;;;;25.56;45.13;99603.72;4898632;29;20029;-77
2023/07/26 03:19:43;;;;;;;2.75;1.13;;;;;;;25.59;44.72;99602.63;4899669;29;20032;-77
2023/07/26 03:22:08;;;;;;;1.92;0.90;;;;;;;25.57;44.84;99604.59;4898344;29;20092;-77
2023/07/26 03:24:33;;;;;;;2.95;1.05;;;;;;;25.53;44.96;99609.31;4899852;29;20174;-77
2023/07/26 03:26:59;;;;;;;2.10;0.80;;;;;;;25.55;44.92;99604.72;4898789;29;20031;-77
2023/07/26 03:29:24;;;;;;;1.65;0.82;;;;;;;25.54;44.91;99607.50;4897401;29;20033;-77
2023/07/26 03:31:50;;;;;;;1.60;1.00;;;;;;;25.53;44.75;99612.00;4891426;29;20032;-77
2023/07/26 03:34:15;;;;;;;2.00;0.80;;;;;;;25.54;45.03;99613.69;4898211;29;20036;-77
2023/07/26 03:36:41;;;;;;;2.88;0.88;;;;;;;25.54;45.07;99605.69;4899443;29;20029;-77
2023/07/26 03:39:06;;;;;;;2.45;0.98;;;;;;;25.54;45.08;99610.16;4899519;29;20389;-77
2023/07/26 03:41:32;;;;;;;2.22;0.90;;;;;;;25.53;45.20;99613.78;4899306;29;20115;-77
2023/07/26 03:43:57;;;;;;;3.42;1.10;;;;;;;25.52;45.21;99612.06;4899381;29;20478;-77
2023/07/26 03:46:23;;;;;;;2.00;1.00;;;;;;;25.50;45.30;99611.31;4899413;29;20418;-77
2023/07/26 03:48:48;;;;;;;2.28;0.90;;;;;;;25.50;45.16;99612.19;4899373;29;20032;-77
2023/07/26 03:51:13;;;;;;;3.00;1.17;;;;;;;25.50;44.97;99608.66;4899329;29;20036;-77
2023/07/26 03:53:39;;;;;;;2.83;1.30;;;;;;;25.48;44.94;99601.63;4889552;29;20185;-77
2023/07/26 03:56:04;;;;;;;2.53;1.10;;;;;;;25.47;45.31;99605.25;4881942;29;20044;-77
2023/07/26 03:58:30;;;;;;;2.28;1.00;;;;;;;25.47;44.88;99599.91;4899407;29;20072;-77
2023/07/26 04:00:55;;;;;;;2.63;0.90;;;;;;;25.47;45.05;99597.25;4899142;29;20043;-78
2023/07/26 04:03:21;;;;;;;1.58;0.85;;;;;;;25.47;45.13;99594.59;4899129;29;20037;-77
2023/07/26 04:05:46;;;;;;;1.65;0.82;;;;;;;25.47;44.94;99594.59;4898988;29;20072;-77
2023/07/26 04:08:11;;;;;;;2.03;0.80;;;;;;;25.45;44.88;99596.53;4898627;29;20107;-78
2023/07/26 04:10:37;;;;;;;3.20;1.13;;;;;;;25.45;45.14;99601.88;4897233;29;20080;-77
2023/07/26 04:13:02;;;;;;;1.98;1.02;;;;;;;25.42;45.10;99594.09;4898968;29;20071;-77
2023/07/26 04:15:31;;;;;;;2.42;0.88;;;;;;;25.44;45.25;99594.84;4899036;29;20464;-78
2023/07/26 04:17:57;;;;;;;1.70;0.75;;;;;;;25.43;45.02;99593.09;4898873;29;20501;-77
2023/07/26 04:20:22;;;;;;;2.95;1.10;;;;;;;25.43;44.96;99600.28;4898914;29;20036;-77
2023/07/26 04:22:48;;;;;;;2.60;1.23;;;;;;;25.41;45.23;99603.06;4898729;29;20481;-77
2023/07/26 04:25:13;;;;;;;2.55;1.00;;;;;;;25.42;45.23;99595.94;4898595;29;20174;-77
2023/07/26 04:27:39;;;;;;;1.92;0.80;;;;;;;25.40;45.10;99604.06;4898578;29;20051;-77
2023/07/26 04:30:05;;;;;;;2.65;1.00;;;;;;;25.42;45.07;99602.09;4898474;29;20132;-77
2023/07/26 04:32:31;;;;;;;3.10;1.20;;;;;;;25.42;44.86;99604.78;4898634;29;20048;-77
2023/07/26 04:34:56;;;;;;;1.98;0.88;;;;;;;25.41;44.95;99604.88;4898448;29;20524;-77
2023/07/26 04:37:22;;;;;;;2.58;1.02;;;;;;;25.41;45.02;99608.41;4897288;29;20025;-77
2023/07/26 04:39:48;;;;;;;2.47;0.90;;;;;;;25.41;45.03;99613.75;4897716;29;20059;-78
2023/07/26 04:42:14;;;;;;;3.35;1.27;;;;;;;25.39;44.92;99610.38;4898163;29;20068;-76
2023/07/26 04:44:39;;;;;;;1.33;0.80;;;;;;;25.38;45.05;99608.66;4898225;29;20028;-77
2023/07/26 04:47:05;;;;;;;1.83;0.90;;;;;;;25.39;45.06;99618.38;4898261;29;20033;-77
2023/07/26 04:49:30;;;;;;;2.95;1.00;;;;;;;25.38;44.91;99622.03;4898102;29;20024;-77
2023/07/26 04:51:56;;;;;;;1.95;0.82;;;;;;;25.38;45.07;99626.50;4898029;29;20038;-77
2023/07/26 04:54:21;;;;;;;2.90;1.05;;;;;;;25.36;44.88;99623.94;4891805;29;20033;-77
2023/07/26 04:56:47;;;;;;;3.53;1.00;;;;;;;25.35;45.20;99619.56;4896489;29;20048;-77
2023/07/26 04:59:12;;;;;;;2.75;0.90;;;;;;;25.34;45.26;99615.22;4897889;29;20397;-77
2023/07/26 05:01:39;;;;;;;2.10;1.10;;;;;;;25.33;44.85;99613.50;4896593;29;20052;-78
2023/07/26 05:04:04;;;;;;;1.92;0.95;;;;;;;25.36;44.89;99620.44;4897615;29;20039;-77
2023/07/26 05:06:30;;;;;;;1.63;0.80;;;;;;;25.36;45.21;99620.44;4898039;29;20438;-77
2023/07/26 05:08:56;;;;;;;2.03;1.05;;;;;;;25.34;44.97;99625.91;4891200;29;20055;-77
2023/07/26 05:11:22;;;;;;;2.25;1.00;;;;;;;25.38;45.14;99618.50;4897956;29;20041;-77
2023/07/26 05:13:49;;;;;;;2.85;1.10;;;;;;;25.34;44.99;99624.06;4897604;29;20020;-77
2023/07/26 05:16:14;;;;;;;2.67;1.00;;;;;;;25.36;45.19;99621.28;4897605;29;20032;-77
2023/07/26 05:18:40;;;;;;;2.55;1.00;;;;;;;25.36;45.14;99623.94;4887885;29;20031;-77
2023/07/26 05:21:05;;;;;;;1.80;0.90;;;;;;;25.34;45.10;99632.06;4893706;29;20037;-77
2023/07/26 05:23:31;;;;;;;2.25;1.02;;;;;;;25.32;44.86;99633.16;4888554;29;20021;-77
2023/07/26 05:25:56;;;;;;;1.88;0.90;;;;;;;25.31;45.05;99636.81;4887459;29;20452;-77
2023/07/26 05:28:22;;;;;;;3.83;1.17;;;;;;;25.31;45.21;99642.13;4897555;29;20100;-77
2023/07/26 05:30:48;;;;;;;1.63;0.93;;;;;;;25.30;45.10;99640.44;4897418;29;20505;-77
2023/07/26 05:33:14;;;;;;;3.03;1.20;;;;;;;25.30;45.18;99645.78;4897311;29;20032;-79
2023/07/26 05:35:39;;;;;;;2.05;0.90;;;;;;;25.29;45.24;99644.09;4897484;29;20029;-77
2023/07/26 05:38:05;;;;;;;1.67;0.82;;;;;;;25.28;45.02;99639.72;4897029;29;20028;-78
2023/07/26 05:40:30;;;;;;;2.85;1.20;;;;;;;25.28;45.10;99639.72;4897482;29;20028;-77
2023/07/26 05:42:55;;;;;;;2.00;0.88;;;;;;;25.30;45.18;99640.44;4893611;29;20029;-78
2023/07/26 05:45:21;;;;;;;2.20;1.00;;;;;;;25.29;45.29;99638.75;4891754;29;20047;-78
2023/07/26 05:47:46;;;;;;;2.22;0.93;;;;;;;25.31;45.17;99636.81;4897176;29;20366;-77
2023/07/26 05:50:12;;;;;;;1.65;0.80;;;;;;;25.28;45.12;99637.06;4897373;29;20028;-77
2023/07/26 05:52:38;;;;;;;2.28;0.85;;;;;;;25.24;45.34;99635.56;4896275;29;20392;-77
2023/07/26 05:55:04;;;;;;;3.60;1.10;;;;;;;25.26;45.23;99638.97;4897193;29;20028;-77
2023/07/26 05:57:30;;;;;;;3.08;1.02;;;;;;;25.27;45.16;99630.00;4884122;29;20020;-77
2023/07/26 05:59:56;;;;;;;2.30;1.10;;;;;;;25.26;45.22;99625.63;4891528;29;20072;-77
2023/07/26 06:02:21;;;;;;;1.80;0.95;;;;;;;25.27;45.19;99632.69;4885107;29;20080;-76
2023/07/26 06:04:47;;;;;;;1.83;0.90;;;;;;;25.27;45.06;99625.50;4894492;29;20095;-76
2023/07/26 06:07:13;;;;;;;1.95;1.05;;;;;;;25.27;45.00;99635.34;4896603;29;20084;-77
2023/07/26 06:09:38;;;;;;;2.53;1.10;;;;;;;25.26;45.20;99644.31;4896538;29;20056;-77
2023/07/26 06:12:04;;;;;;;2.53;1.10;;;;;;;25.26;45.11;99639.84;4897143;29;20062;-77
2023/07/26 06:14:30;;;;;;;2.50;0.65;;;;;;;25.25;45.17;99640.81;4896859;29;20024;-77
2023/07/26 06:16:56;;;;;;;2.50;1.00;;;;;;;25.25;45.21;99638.13;4897037;29;20056;-77
2023/07/26 06:19:22;;;;;;;2.10;0.98;;;;;;;25.25;45.10;99639.94;4896782;29;20063;-76
2023/07/26 06:21:48;;;;;;;2.63;0.90;;;;;;;25.24;45.07;99652.47;4896478;29;20501;-76
2023/07/26 06:24:14;;;;;;;3.40;1.10;;;;;;;25.24;45.39;99655.13;4896944;29;20033;-77
2023/07/26 06:26:39;;;;;;;2.40;0.98;;;;;;;25.23;44.99;99644.56;4896794;29;20096;-77
2023/07/26 06:29:05;;;;;;;2.13;1.00;;;;;;;25.22;45.34;99653.53;4896810;29;20389;-77
2023/07/26 06:31:30;;;;;;;2.85;1.08;;;;;;;25.24;44.94;99651.59;4896843;29;20080;-76
2023/07/26 06:33:55;;;;;;;2.30;1.10;;;;;;;25.22;45.11;99643.69;4887410;29;20100;-77
2023/07/26 06:36:21;;;;;;;2.80;1.27;;;;;;;25.25;45.27;99653.28;4886706;29;20061;-76
2023/07/26 06:38:46;;;;;;;1.98;0.93;;;;;;;25.24;45.24;99646.25;4896461;29;20461;-76
2023/07/26 06:41:12;;;;;;;1.20;0.80;;;;;;;25.24;45.15;99652.47;4896734;29;20024;-77
2023/07/26 06:43:37;;;;;;;1.63;0.90;;;;;;;25.24;45.34;99656.94;4895400;29;20502;-77
2023/07/26 06:46:03;;;;;;;3.28;1.00;;;;;;;25.24;45.40;99656.94;4896621;29;20032;-77
2023/07/26 06:48:29;;;;;;;2.58;1.00;;;;;;;25.24;45.10;99660.47;4891526;29;20029;-77
2023/07/26 06:50:54;;;;;;;2.50;1.20;;;;;;;25.25;45.20;99658.63;4882807;29;20029;-78
2023/07/26 06:53:20;;;;;;;3.92;1.10;;;;;;;25.24;45.08;99664.94;4896486;29;20033;-76
2023/07/26 06:55:45;;;;;;;0.93;0.73;;;;;;;25.23;45.27;99660.59;4896449;29;20112;-76
2023/07/26 06:58:11;;;;;;;4.13;1.40;;;;;;;25.23;45.18;99671.25;4896405;29;20021;-77
2023/07/26 07:00:36;;;;;;;6.25;1.20;;;;;;;25.22;45.29;99674.91;4896475;29;20465;-77
2023/07/26 07:03:03;;;;;;;2.60;1.00;;;;;;;25.22;45.27;99669.56;4892791;29;20477;-76
2023/07/26 07:05:30;;;;;;;3.35;1.00;;;;;;;25.24;45.07;99667.63;4879938;29;20443;-77
2023/07/26 07:07:56;;;;;;;1.88;0.95;;;;;;;25.22;45.18;99669.56;4896218;29;20560;-76
2023/07/26 07:10:22;;;;;;;1.95;1.05;;;;;;;25.22;45.34;99666.91;4899923;29;20135;-76
2023/07/26 07:12:48;;;;;;;3.33;0.98;;;;;;;25.20;45.19;99672.34;4895779;29;20024;-78
2023/07/26 07:15:14;;;;;;;3.25;1.20;;;;;;;25.20;45.05;99667.88;4899863;29;20029;-77
2023/07/26 07:17:39;;;;;;;2.15;1.20;;;;;;;25.20;45.38;99670.53;4899434;29;20056;-77
2023/07/26 07:20:07;;;;;;;1.77;0.80;;;;;;;25.20;45.20;99678.56;4887675;29;20520;-78
2023/07/26 07:22:33;;;;;;;3.58;1.40;;;;;;;25.20;45.05;99673.22;4895559;29;20036;-76
2023/07/26 07:24:59;;;;;;;3.08;1.52;;;;;;;25.17;45.12;99673.44;4897681;29;20031;-77
2023/07/26 07:27:24;;;;;;;3.03;1.40;;;;;;;25.18;45.33;99675.13;4899657;29;20025;-76
2023/07/26 07:29:50;;;;;;;1.92;1.00;;;;;;;25.18;45.35;99675.13;4899632;29;20032;-76
2023/07/26 07:32:16;;;;;;;3.17;1.30;;;;;;;25.16;45.53;99682.41;4891461;29;20089;-77
2023/07/26 07:34:41;;;;;;;3.45;0.90;;;;;;;25.16;45.44;99681.53;4891209;29;20036;-77
2023/07/26 07:37:07;;;;;;;2.00;0.77;;;;;;;25.15;45.37;99677.19;4899662;29;20511;-76
2023/07/26 07:39:32;;;;;;;3.25;1.10;;;;;;;25.16;45.42;99681.53;4895083;29;20072;-76
2023/07/26 07:41:58;;;;;;;1.60;0.70;;;;;;;25.16;45.42;99679.75;4881616;29;20124;-76
2023/07/26 07:44:24;;;;;;;2.67;1.00;;;;;;;25.16;45.27;99687.75;4899593;29;20040;-77
2023/07/26 07:46:49;;;;;;;1.75;0.88;;;;;;;25.16;45.49;99677.06;4897409;29;20025;-77
2023/07/26 07:49:15;;;;;;;3.15;1.20;;;;;;;25.17;45.46;99676.09;4893747;29;20028;-77
2023/07/26 07:51:40;;;;;;;4.30;1.40;;;;;;;25.16;45.48;99674.41;4896484;29;20120;-76
2023/07/26 07:54:06;;;;;;;1.98;1.08;;;;;;;25.16;45.30;99666.38;4893481;29;20068;-76
2023/07/26 07:56:31;;;;;;;2.15;0.85;;;;;;;25.15;45.12;99670.03;4890500;29;20029;-76
2023/07/26 07:58:57;;;;;;;3.78;1.13;;;;;;;25.15;45.48;99670.03;4894574;29;20027;-76
2023/07/26 08:01:24;;;;;;;3.20;0.90;;;;;;;25.15;45.56;99678.03;4885690;29;20116;-76
2023/07/26 08:03:49;;;;;;;2.88;1.20;;;;;;;25.14;45.50;99678.97;4888628;29;20024;-77
2023/07/26 08:06:14;;;;;;;2.53;1.27;;;;;;;25.16;45.41;99686.88;4895052;29;20029;-77
2023/07/26 08:08:40;;;;;;;1.30;0.80;;;;;;;25.16;45.31;99700.25;4898523;29;20045;-77
2023/07/26 08:11:12;;;;;;;2.08;1.20;;;;;;;25.16;45.43;99695.75;4898786;29;20112;-78
2023/07/26 08:13:37;;;;;;;2.17;1.00;;;;;;;25.18;45.37;99683.13;4898001;29;20032;-78
2023/07/26 08:16:03;;;;;;;2.05;1.00;;;;;;;25.18;45.43;99685.81;4898007;29;20029;-77
2023/07/26 08:18:28;;;;;;;2.33;1.15;;;;;;;25.18;45.35;99675.13;4892384;29;20082;-78
2023/07/26 08:20:54;;;;;;;2.42;1.00;;;;;;;25.18;45.72;99667.13;4898582;29;20102;-78
2023/07/26 08:23:19;;;;;;;2.47;1.20;;;;;;;25.20;45.30;99665.19;4898816;29;20025;-78
2023/07/26 08:25:45;;;;;;;2.83;1.10;;;;;;;25.23;45.28;99671.25;4898685;29;20137;-78
2023/07/26 08:28:11;;;;;;;2.75;1.10;;;;;;;25.22;45.54;99658.88;4898675;29;20374;-78
2023/07/26 08:30:37;;;;;;;2.30;1.10;;;;;;;25.21;45.53;99668.69;4898504;29;20024;-78
2023/07/26 08:33:03;;;;;;;2.03;1.08;;;;;;;25.22;45.65;99665.06;4895427;29;20028;-77
2023/07/26 08:35:29;;;;;;;1.80;0.90;;;;;;;25.22;45.57;99672.25;4894899;29;20025;-77
2023/07/26 08:37:54;;;;;;;2.75;1.00;;;;;;;25.24;45.56;99667.63;4898418;29;20056;-77
2023/07/26 08:40:20;;;;;;;2.95;1.27;;;;;;;25.24;45.64;99656.94;4898440;29;20074;-76
2023/07/26 08:42:46;;;;;;;2.13;0.98;;;;;;;25.25;45.36;99669.31;4898596;29;20436;-77
2023/07/26 08:45:12;;;;;;;2.05;1.10;;;;;;;25.24;45.39;99667.63;4896205;29;20068;-76
2023/07/26 08:47:38;;;;;;;2.47;1.20;;;;;;;25.26;45.53;99666.53;4879379;29;20482;-80
2023/07/26 08:50:04;;;;;;;2.53;1.02;;;;;;;25.27;45.44;99662.06;4897936;29;20065;-77
2023/07/26 08:52:30;;;;;;;2.17;0.90;;;;;;;25.27;45.36;99667.41;4897943;29;20032;-77
2023/07/26 08:54:55;;;;;;;2.33;1.05;;;;;;;25.29;45.47;99662.78;4897958;29;20035;-77
2023/07/26 08:57:24;;;;;;;1.77;0.90;;;;;;;25.30;45.49;99653.78;4897928;29;20347;-77
2023/07/26 08:59:49;;;;;;;2.17;1.00;;;;;;;25.29;45.35;99654.78;4897962;29;20407;-76
2023/07/26 09:02:16;;;;;;;2.72;1.13;;;;;;;25.31;45.16;99647.47;4897637;29;20047;-77
2023/07/26 09:04:41;;;;;;;2.67;1.15;;;;;;;25.30;45.30;99652.00;4897700;29;20033;-77
2023/07/26 09:07:07;;;;;;;3.03;1.35;;;;;;;25.31;45.54;99652.81;4897849;29;20039;-76
2023/07/26 09:09:34;;;;;;;2.55;1.02;;;;;;;25.32;45.47;99649.19;4897638;29;20045;-76
2023/07/26 09:12:01;;;;;;;1.52;0.70;;;;;;;25.32;45.36;99646.50;4897767;29;20035;-77
2023/07/26 09:14:27;;;;;;;3.60;0.93;;;;;;;25.31;45.69;99645.69;4895247;29;20040;-76
2023/07/26 09:16:58;;;;;;;2.17;1.00;;;;;;;25.34;45.54;99655.28;4897230;29;20032;-76
2023/07/26 09:19:33;;;;;;;2.45;1.10;;;;;;;25.33;45.50;99650.91;4897096;29;20025;-77
2023/07/26 09:22:02;;;;;;;3.28;1.02;;;;;;;25.34;45.54;99650.75;4894417;29;20032;-77
2023/07/26 09:24:41;;;;;;;3.05;1.10;;;;;;;25.36;45.65;99652.50;4897570;29;20462;-76
2023/07/26 09:27:10;;;;;;;3.17;1.02;;;;;;;25.36;45.30;99655.16;4896647;29;20035;-76
2023/07/26 09:29:38;;;;;;;1.67;0.90;;;;;;;25.35;45.61;99648.97;4881251;29;20140;-77
2023/07/26 09:32:05;;;;;;;2.67;1.15;;;;;;;25.38;45.54;99653.22;4896813;29;20494;-76
2023/07/26 09:34:31;;;;;;;2.25;1.02;;;;;;;25.38;45.44;99654.06;4897201;29;20024;-77
2023/07/26 09:36:58;;;;;;;2.30;1.13;;;;;;;25.40;45.38;99652.13;4895793;29;20032;-77
2023/07/26 09:39:26;;;;;;;2.38;1.10;;;;;;;25.39;45.30;99645.09;4897044;29;20024;-76
2023/07/26 09:42:08;;;;;;;1.58;0.90;;;;;;;25.42;45.60;99650.19;4894092;29;20040;-77
2023/07/26 09:44:35;;;;;;;3.47;1.35;;;;;;;25.44;45.25;99644.72;4895172;29;20079;-77
2023/07/26 09:47:01;;;;;;;2.25;1.02;;;;;;;25.43;45.57;99646.53;4896233;29;20431;-77
2023/07/26 09:49:29;;;;;;;3.35;1.30;;;;;;;25.43;45.53;99641.19;4886307;29;20080;-77
2023/07/26 09:51:58;;;;;;;2.72;1.30;;;;;;;25.45;45.34;99644.63;4896480;29;20505;-77
2023/07/26 09:54:31;;;;;;;2.88;1.23;;;;;;;25.47;45.38;99637.31;4897042;29;20434;-76
2023/07/26 09:56:58;;;;;;;2.15;1.15;;;;;;;25.48;45.26;99639.03;4893490;29;20031;-76
2023/07/26 09:59:28;;;;;;;2.92;1.20;;;;;;;25.47;45.55;99648.00;4896768;29;20032;-77
2023/07/26 10:01:55;;;;;;;3.38;1.27;;;;;;;25.50;45.54;99651.41;4888990;29;20088;-78
2023/07/26 10:04:36;;;;;;;2.67;1.05;;;;;;;25.51;45.33;99647.78;4896930;29;20028;-76
2023/07/26 10:07:04;;;;;;;3.35;1.48;;;;;;;25.54;45.52;99631.53;4896675;29;20020;-77
2023/07/26 10:09:32;;;;;;;2.95;1.20;;;;;;;25.54;45.28;99642.22;4892314;29;20049;-76
2023/07/26 10:11:59;;;;;;;2.05;0.88;;;;;;;25.55;45.23;99634.09;4896556;29;20020;-77
2023/07/26 10:14:25;;;;;;;2.53;0.90;;;;;;;25.57;45.28;99631.31;4896372;29;20345;-77
2023/07/26 10:16:51;;;;;;;2.45;1.00;;;;;;;25.58;45.53;99625.00;4890872;29;20029;-77
2023/07/26 10:19:18;;;;;;;1.92;1.05;;;;;;;25.60;45.23;99634.59;4891661;29;20440;-77
2023/07/26 10:21:47;;;;;;;2.78;1.10;;;;;;;25.61;45.13;99627.41;4896743;29;20032;-77
2023/07/26 10:24:14;;;;;;;2.55;1.08;;;;;;;25.62;45.24;99634.47;4896658;29;20028;-77
2023/07/26 10:26:42;;;;;;;1.75;0.90;;;;;;;25.63;45.06;99628.16;4896483;29;20020;-77
2023/07/26 10:29:08;;;;;;;2.28;1.00;;;;;;;25.66;45.60;99622.56;4890384;29;20043;-77
2023/07/26 10:31:34;;;;;;;3.90;1.30;;;;;;;25.66;45.49;99622.56;4895161;29;20510;-76
2023/07/26 10:33:59;;;;;;;3.00;1.15;;;;;;;25.68;45.34;99617.97;4896479;29;20506;-76
2023/07/26 10:36:32;;;;;;;1.77;1.00;;;;;;;25.69;45.39;99619.66;4896567;29;20035;-77
2023/07/26 10:39:05;;;;;;;2.17;0.85;;;;;;;25.69;45.20;99608.09;4895208;29;20029;-77
2023/07/26 10:41:31;;;;;;;2.75;1.10;;;;;;;25.71;45.37;99600.84;4900363;29;20024;-77
2023/07/26 10:44:11;;;;;;;2.63;1.25;;;;;;;25.72;45.19;99603.38;4900030;29;20029;-77
2023/07/26 10:46:54;;;;;;;3.33;1.13;;;;;;;25.74;45.48;99606.78;4896634;29;20024;-77
2023/07/26 10:49:26;;;;;;;2.80;1.05;;;;;;;25.77;45.23;99604.81;4911623;29;20064;-77
2023/07/26 10:51:58;;;;;;;1.80;1.10;;;;;;;25.77;45.16;99596.81;4900078;29;20025;-77
2023/07/26 10:54:39;;;;;;;2.60;0.90;;;;;;;25.79;45.39;99597.53;4900074;29;20025;-77
2023/07/26 10:57:26;;;;;;;1.52;0.80;;;;;;;25.79;45.17;99597.53;4896974;29;20404;-77
2023/07/26 11:00:04;;;;;;;2.45;1.20;;;;;;;25.81;45.13;99590.25;4897563;29;20084;-77
2023/07/26 11:02:59;;;;;;;2.00;1.08;;;;;;;25.81;45.10;99590.25;4899912;29;20489;-76
2023/07/26 11:05:26;;;;;;;1.98;1.02;;;;;;;25.82;45.39;99583.94;4899834;29;20119;-77
2023/07/26 11:08:03;;;;;;;3.92;1.30;;;;;;;25.83;45.08;99577.63;4899773;29;20056;-77
2023/07/26 11:10:48;;;;;;;2.40;1.00;;;;;;;25.83;45.27;99583.81;4899523;29;20516;-77
2023/07/26 11:13:28;;;;;;;3.50;1.15;;;;;;;25.84;45.31;99579.31;4893014;29;20016;-77
2023/07/26 11:15:54;;;;;;;3.28;1.17;;;;;;;25.84;45.19;99577.50;4899900;29;20079;-77
2023/07/26 11:18:20;;;;;;;2.67;1.20;;;;;;;25.86;45.13;99572.03;4899134;29;20490;-77
2023/07/26 11:20:47;;;;;;;3.17;1.20;;;;;;;25.87;45.13;99581.75;4899630;29;20070;-77
2023/07/26 11:23:16;;;;;;;1.85;0.98;;;;;;;25.88;45.22;99578.09;4899612;29;20482;-77
2023/07/26 11:25:42;;;;;;;3.67;1.30;;;;;;;25.89;45.59;99576.28;4899346;29;20126;-78
2023/07/26 11:28:07;;;;;;;3.00;1.20;;;;;;;25.88;45.31;99580.78;4899635;29;20025;-77
2023/07/26 11:30:33;;;;;;;2.42;1.00;;;;;;;25.89;45.28;99574.44;4898868;29;20068;-77
2023/07/26 11:32:59;;;;;;;1.95;1.05;;;;;;;25.91;45.07;99575.16;4883824;29;20021;-76